SH002 KNSE-KNSE
Flight info
| Callsign | SH002 |
|---|---|
| Flight time | 0h 43m |
| Altitude | 12500 |
| Route | VFR |
| Aircraft | TEX2/L-SDFGRWY/S |
Departure
| Time | 2026-04-24 23:46 |
|---|---|
| Airport | Whiting Field Naval Air Station - North (KNSE) |
Arrival
| Time | 2026-04-25 00:30 |
|---|---|
| Airport | Whiting Field Naval Air Station - North (KNSE) |
| Time | Latitude | Longitude | Altitude | Speed | Heading |
|---|---|---|---|---|---|
| 2026-04-24 23:18 | 30.71378 | -87.02603 | 175 ft | 0 kts | 271° |
| 2026-04-24 23:35 | 30.71380 | -87.02613 | 175 ft | 7 kts | 300° |
| 2026-04-24 23:35 | 30.71417 | -87.02619 | 175 ft | 4 kts | 358° |
| 2026-04-24 23:35 | 30.71484 | -87.02618 | 175 ft | 14 kts | 1° |
| 2026-04-24 23:35 | 30.71569 | -87.02615 | 175 ft | 8 kts | 359° |
| 2026-04-24 23:36 | 30.71608 | -87.02614 | 175 ft | 5 kts | 4° |
| 2026-04-24 23:36 | 30.71647 | -87.02609 | 175 ft | 5 kts | 8° |
| 2026-04-24 23:36 | 30.71688 | -87.02607 | 175 ft | 6 kts | 4° |
| 2026-04-24 23:36 | 30.71732 | -87.02606 | 175 ft | 6 kts | 3° |
| 2026-04-24 23:37 | 30.71777 | -87.02603 | 175 ft | 6 kts | 354° |
| 2026-04-24 23:37 | 30.71823 | -87.02602 | 175 ft | 6 kts | 4° |
| 2026-04-24 23:37 | 30.71901 | -87.02595 | 176 ft | 4 kts | 5° |
| 2026-04-24 23:38 | 30.71930 | -87.02593 | 177 ft | 4 kts | 3° |
| 2026-04-24 23:38 | 30.71974 | -87.02589 | 176 ft | 7 kts | 357° |
| 2026-04-24 23:38 | 30.72010 | -87.02599 | 177 ft | 1 kts | 316° |
| 2026-04-24 23:38 | 30.72032 | -87.02628 | 177 ft | 8 kts | 311° |
| 2026-04-24 23:39 | 30.72076 | -87.02689 | 178 ft | 10 kts | 310° |
| 2026-04-24 23:39 | 30.72114 | -87.02730 | 178 ft | 3 kts | 324° |
| 2026-04-24 23:39 | 30.72128 | -87.02741 | 178 ft | 2 kts | 328° |
| 2026-04-24 23:39 | 30.72170 | -87.02745 | 178 ft | 9 kts | 1° |
| 2026-04-24 23:40 | 30.72230 | -87.02742 | 179 ft | 6 kts | 4° |
| 2026-04-24 23:40 | 30.72264 | -87.02742 | 180 ft | 3 kts | 357° |
| 2026-04-24 23:40 | 30.72305 | -87.02741 | 181 ft | 9 kts | 3° |
| 2026-04-24 23:40 | 30.72351 | -87.02738 | 182 ft | 4 kts | 359° |
| 2026-04-24 23:41 | 30.72393 | -87.02738 | 182 ft | 9 kts | 1° |
| 2026-04-24 23:41 | 30.72466 | -87.02737 | 184 ft | 7 kts | 1° |
| 2026-04-24 23:41 | 30.72503 | -87.02734 | 184 ft | 4 kts | 0° |
| 2026-04-24 23:41 | 30.72548 | -87.02734 | 185 ft | 9 kts | 1° |
| 2026-04-24 23:42 | 30.72629 | -87.02731 | 186 ft | 12 kts | 2° |
| 2026-04-24 23:42 | 30.72703 | -87.02732 | 186 ft | 10 kts | 351° |
| 2026-04-24 23:42 | 30.72757 | -87.02774 | 186 ft | 8 kts | 319° |
| 2026-04-24 23:42 | 30.72799 | -87.02818 | 187 ft | 7 kts | 317° |
| 2026-04-24 23:43 | 30.72835 | -87.02856 | 188 ft | 6 kts | 317° |
| 2026-04-24 23:43 | 30.72867 | -87.02890 | 189 ft | 5 kts | 320° |
| 2026-04-24 23:43 | 30.72902 | -87.02911 | 189 ft | 5 kts | 342° |
| 2026-04-24 23:43 | 30.72932 | -87.02893 | 189 ft | 4 kts | 39° |
| 2026-04-24 23:44 | 30.72952 | -87.02874 | 190 ft | 3 kts | 43° |
| 2026-04-24 23:44 | 30.72966 | -87.02859 | 190 ft | 2 kts | 38° |
| 2026-04-24 23:44 | 30.72977 | -87.02847 | 190 ft | 1 kts | 47° |
| 2026-04-24 23:44 | 30.72985 | -87.02837 | 190 ft | 1 kts | 62° |
| 2026-04-24 23:45 | 30.72988 | -87.02824 | 190 ft | 2 kts | 90° |
| 2026-04-24 23:45 | 30.72975 | -87.02795 | 190 ft | 1 kts | 134° |
| 2026-04-24 23:45 | 30.72951 | -87.02767 | 190 ft | 31 kts | 137° |
| 2026-04-24 23:45 | 30.72599 | -87.02371 | 253 ft | 93 kts | 136° |
| 2026-04-24 23:46 | 30.72060 | -87.01732 | 375 ft | 134 kts | 134° |
| 2026-04-24 23:46 | 30.71360 | -87.00880 | 758 ft | 154 kts | 133° |
| 2026-04-24 23:46 | 30.70602 | -86.99935 | 1232 ft | 164 kts | 133° |
| 2026-04-24 23:46 | 30.70124 | -86.98737 | 1753 ft | 173 kts | 92° |
| 2026-04-24 23:47 | 30.70553 | -86.97452 | 2284 ft | 181 kts | 46° |
| 2026-04-24 23:47 | 30.71693 | -86.96864 | 2833 ft | 185 kts | 359° |
| 2026-04-24 23:47 | 30.72898 | -86.97277 | 3377 ft | 179 kts | 333° |
| 2026-04-24 23:47 | 30.74011 | -86.97879 | 3874 ft | 175 kts | 333° |
| 2026-04-24 23:48 | 30.75098 | -86.98464 | 4347 ft | 174 kts | 333° |
| 2026-04-24 23:48 | 30.76201 | -86.99052 | 4828 ft | 172 kts | 333° |
| 2026-04-24 23:48 | 30.77284 | -86.99625 | 5290 ft | 172 kts | 333° |
| 2026-04-24 23:48 | 30.78369 | -87.00199 | 5762 ft | 171 kts | 333° |
| 2026-04-24 23:49 | 30.79442 | -87.00771 | 6227 ft | 170 kts | 333° |
| 2026-04-24 23:49 | 30.80514 | -87.01345 | 6691 ft | 170 kts | 333° |
| 2026-04-24 23:49 | 30.81595 | -87.01919 | 7152 ft | 169 kts | 333° |
| 2026-04-24 23:49 | 30.82661 | -87.02480 | 7598 ft | 168 kts | 333° |
| 2026-04-24 23:50 | 30.83718 | -87.03031 | 8032 ft | 167 kts | 333° |
| 2026-04-24 23:50 | 30.84813 | -87.03605 | 8508 ft | 177 kts | 333° |
| 2026-04-24 23:50 | 30.85946 | -87.04194 | 9029 ft | 182 kts | 333° |
| 2026-04-24 23:50 | 30.87108 | -87.04793 | 9580 ft | 185 kts | 333° |
| 2026-04-24 23:51 | 30.88286 | -87.05401 | 10149 ft | 187 kts | 333° |
| 2026-04-24 23:51 | 30.89479 | -87.06001 | 10732 ft | 187 kts | 333° |
| 2026-04-24 23:51 | 30.90664 | -87.06583 | 11329 ft | 186 kts | 333° |
| 2026-04-24 23:51 | 30.91862 | -87.07165 | 11727 ft | 195 kts | 333° |
| 2026-04-24 23:52 | 30.93106 | -87.07768 | 12172 ft | 177 kts | 333° |
| 2026-04-24 23:52 | 30.94211 | -87.08289 | 12439 ft | 173 kts | 333° |
| 2026-04-24 23:52 | 30.95355 | -87.08829 | 12506 ft | 185 kts | 333° |
| 2026-04-24 23:52 | 30.96449 | -87.09620 | 12456 ft | 193 kts | 293° |
| 2026-04-24 23:53 | 30.96505 | -87.11186 | 12495 ft | 204 kts | 272° |
| 2026-04-24 23:53 | 30.96633 | -87.12824 | 12516 ft | 207 kts | 300° |
| 2026-04-24 23:53 | 30.97869 | -87.13674 | 12562 ft | 215 kts | 339° |
| 2026-04-24 23:53 | 30.99332 | -87.14172 | 12553 ft | 223 kts | 339° |
| 2026-04-24 23:54 | 31.00764 | -87.14669 | 12540 ft | 203 kts | 339° |
| 2026-04-24 23:54 | 31.02045 | -87.15103 | 12490 ft | 181 kts | 339° |
| 2026-04-24 23:54 | 31.03186 | -87.15477 | 12495 ft | 158 kts | 339° |
| 2026-04-24 23:54 | 31.04174 | -87.15787 | 12463 ft | 130 kts | 339° |
| 2026-04-24 23:55 | 31.04918 | -87.15991 | 12496 ft | 87 kts | 339° |
| 2026-04-24 23:55 | 31.05508 | -87.16130 | 12125 ft | 95 kts | 338° |
| 2026-04-24 23:55 | 31.06122 | -87.16299 | 12079 ft | 89 kts | 328° |
| 2026-04-24 23:55 | 31.06546 | -87.16780 | 12385 ft | 72 kts | 309° |
| 2026-04-24 23:56 | 31.06862 | -87.17157 | 12365 ft | 86 kts | 297° |
| 2026-04-24 23:56 | 31.07347 | -87.17504 | 10622 ft | 182 kts | 3° |
| 2026-04-24 23:56 | 31.08187 | -87.17362 | 12259 ft | 108 kts | 355° |
| 2026-04-24 23:56 | 31.08799 | -87.17324 | 12379 ft | 120 kts | 349° |
| 2026-04-24 23:57 | 31.09232 | -87.17886 | 9557 ft | 213 kts | 270° |
| 2026-04-24 23:57 | 31.09222 | -87.18984 | 11177 ft | 109 kts | 274° |
| 2026-04-24 23:57 | 31.09237 | -87.19983 | 11470 ft | 142 kts | 271° |
| 2026-04-24 23:57 | 31.08401 | -87.20727 | 11849 ft | 179 kts | 202° |
| 2026-04-24 23:58 | 31.07223 | -87.21098 | 12537 ft | 185 kts | 205° |
| 2026-04-24 23:58 | 31.06044 | -87.21798 | 12423 ft | 192 kts | 238° |
| 2026-04-24 23:58 | 31.05792 | -87.23149 | 12515 ft | 167 kts | 282° |
| 2026-04-24 23:58 | 31.05965 | -87.24430 | 12501 ft | 148 kts | 283° |
| 2026-04-24 23:59 | 31.06150 | -87.25521 | 12480 ft | 126 kts | 285° |
| 2026-04-24 23:59 | 31.06330 | -87.26464 | 12235 ft | 120 kts | 285° |
| 2026-04-24 23:59 | 31.06506 | -87.27330 | 12263 ft | 100 kts | 286° |
| 2026-04-24 23:59 | 31.06679 | -87.28047 | 12305 ft | 84 kts | 289° |
| 2026-04-25 00:00 | 31.06826 | -87.28629 | 12292 ft | 76 kts | 287° |
| 2026-04-25 00:00 | 31.06675 | -87.29009 | 10310 ft | 196 kts | 180° |
| 2026-04-25 00:00 | 31.05827 | -87.28896 | 10928 ft | 81 kts | 185° |
| 2026-04-25 00:00 | 31.05074 | -87.28832 | 10048 ft | 130 kts | 187° |
| 2026-04-25 00:01 | 31.04347 | -87.28893 | 9977 ft | 96 kts | 194° |
| 2026-04-25 00:01 | 31.03608 | -87.29041 | 9106 ft | 114 kts | 203° |
| 2026-04-25 00:01 | 31.02937 | -87.29294 | 8900 ft | 99 kts | 212° |
| 2026-04-25 00:01 | 31.02362 | -87.29706 | 8525 ft | 102 kts | 215° |
| 2026-04-25 00:02 | 31.01771 | -87.30185 | 9090 ft | 99 kts | 220° |
| 2026-04-25 00:02 | 31.01169 | -87.30718 | 9573 ft | 117 kts | 224° |
| 2026-04-25 00:02 | 31.00586 | -87.31401 | 10100 ft | 125 kts | 247° |
| 2026-04-25 00:02 | 31.00544 | -87.32375 | 10695 ft | 130 kts | 291° |
| 2026-04-25 00:03 | 31.01238 | -87.33171 | 11130 ft | 159 kts | 333° |
| 2026-04-25 00:03 | 31.02442 | -87.33157 | 11419 ft | 196 kts | 16° |
| 2026-04-25 00:03 | 31.03428 | -87.32180 | 11715 ft | 181 kts | 42° |
| 2026-04-25 00:03 | 31.04209 | -87.31082 | 11914 ft | 172 kts | 43° |
| 2026-04-25 00:04 | 31.04938 | -87.30034 | 12135 ft | 163 kts | 43° |
| 2026-04-25 00:04 | 31.05631 | -87.29017 | 12328 ft | 157 kts | 43° |
| 2026-04-25 00:04 | 31.06284 | -87.28033 | 12409 ft | 143 kts | 42° |
| 2026-04-25 00:04 | 31.06824 | -87.27167 | 12497 ft | 122 kts | 42° |
| 2026-04-25 00:05 | 31.07304 | -87.26346 | 12490 ft | 124 kts | 43° |
| 2026-04-25 00:05 | 31.07798 | -87.25519 | 12498 ft | 126 kts | 43° |
| 2026-04-25 00:05 | 31.08301 | -87.24695 | 12489 ft | 123 kts | 42° |
| 2026-04-25 00:05 | 31.08803 | -87.23891 | 12486 ft | 120 kts | 41° |
| 2026-04-25 00:06 | 31.09287 | -87.23115 | 12453 ft | 118 kts | 41° |
| 2026-04-25 00:06 | 31.09763 | -87.22351 | 12533 ft | 119 kts | 40° |
| 2026-04-25 00:06 | 31.10270 | -87.21565 | 12510 ft | 124 kts | 40° |
| 2026-04-25 00:06 | 31.10811 | -87.20757 | 12504 ft | 127 kts | 38° |
| 2026-04-25 00:07 | 31.11369 | -87.19958 | 12499 ft | 128 kts | 38° |
| 2026-04-25 00:07 | 31.11947 | -87.19157 | 12502 ft | 129 kts | 38° |
| 2026-04-25 00:07 | 31.12538 | -87.18362 | 12497 ft | 126 kts | 36° |
| 2026-04-25 00:07 | 31.13082 | -87.17622 | 12498 ft | 118 kts | 36° |
| 2026-04-25 00:08 | 31.13629 | -87.16886 | 12503 ft | 122 kts | 36° |
| 2026-04-25 00:08 | 31.14207 | -87.16143 | 12502 ft | 125 kts | 35° |
| 2026-04-25 00:08 | 31.14816 | -87.15391 | 12499 ft | 126 kts | 33° |
| 2026-04-25 00:08 | 31.15437 | -87.14651 | 12500 ft | 127 kts | 33° |
| 2026-04-25 00:09 | 31.16060 | -87.13930 | 12473 ft | 125 kts | 32° |
| 2026-04-25 00:09 | 31.16684 | -87.13219 | 12489 ft | 126 kts | 31° |
| 2026-04-25 00:09 | 31.17331 | -87.12509 | 12482 ft | 124 kts | 30° |
| 2026-04-25 00:09 | 31.17968 | -87.11820 | 12498 ft | 127 kts | 30° |
| 2026-04-25 00:10 | 31.18622 | -87.11134 | 12486 ft | 126 kts | 29° |
| 2026-04-25 00:10 | 31.19275 | -87.10461 | 12487 ft | 123 kts | 28° |
| 2026-04-25 00:10 | 31.19927 | -87.09802 | 12494 ft | 121 kts | 27° |
| 2026-04-25 00:10 | 31.20570 | -87.09166 | 12489 ft | 119 kts | 27° |
| 2026-04-25 00:11 | 31.21189 | -87.08559 | 12480 ft | 113 kts | 26° |
| 2026-04-25 00:11 | 31.21784 | -87.07979 | 12475 ft | 107 kts | 26° |
| 2026-04-25 00:11 | 31.22354 | -87.07426 | 12412 ft | 110 kts | 25° |
| 2026-04-25 00:11 | 31.22926 | -87.06876 | 12565 ft | 102 kts | 24° |
| 2026-04-25 00:12 | 31.23517 | -87.06332 | 12517 ft | 106 kts | 24° |
| 2026-04-25 00:12 | 31.24101 | -87.05801 | 12340 ft | 112 kts | 24° |
| 2026-04-25 00:12 | 31.24684 | -87.05279 | 12113 ft | 108 kts | 24° |
| 2026-04-25 00:12 | 31.25342 | -87.04712 | 11339 ft | 122 kts | 30° |
| 2026-04-25 00:13 | 31.25684 | -87.04314 | 9100 ft | 220 kts | 193° |
| 2026-04-25 00:13 | 31.24199 | -87.04690 | 8436 ft | 205 kts | 193° |
| 2026-04-25 00:13 | 31.23177 | -87.04885 | 9336 ft | 120 kts | 192° |
| 2026-04-25 00:13 | 31.22639 | -87.05266 | 7528 ft | 212 kts | 248° |
| 2026-04-25 00:14 | 31.21973 | -87.06915 | 6358 ft | 231 kts | 245° |
| 2026-04-25 00:14 | 31.21315 | -87.08520 | 6227 ft | 210 kts | 245° |
| 2026-04-25 00:14 | 31.20914 | -87.10122 | 5653 ft | 211 kts | 276° |
| 2026-04-25 00:14 | 31.21541 | -87.11642 | 4997 ft | 214 kts | 316° |
| 2026-04-25 00:15 | 31.22818 | -87.12408 | 4747 ft | 198 kts | 338° |
| 2026-04-25 00:15 | 31.23320 | -87.13560 | 4480 ft | 177 kts | 252° |
| 2026-04-25 00:15 | 31.22576 | -87.14710 | 3806 ft | 194 kts | 204° |
| 2026-04-25 00:15 | 31.21192 | -87.14987 | 3020 ft | 205 kts | 184° |
| 2026-04-25 00:16 | 31.19902 | -87.14392 | 2243 ft | 219 kts | 131° |
| 2026-04-25 00:16 | 31.19488 | -87.12749 | 1799 ft | 210 kts | 94° |
| 2026-04-25 00:16 | 31.19505 | -87.11130 | 1639 ft | 192 kts | 91° |
| 2026-04-25 00:16 | 31.19584 | -87.09560 | 1204 ft | 192 kts | 88° |
| 2026-04-25 00:17 | 31.19871 | -87.08097 | 823 ft | 190 kts | 38° |
| 2026-04-25 00:17 | 31.20382 | -87.08678 | 450 ft | 149 kts | 216° |
| 2026-04-25 00:17 | 31.19580 | -87.09454 | 679 ft | 162 kts | 214° |
| 2026-04-25 00:17 | 31.18634 | -87.10230 | 1061 ft | 166 kts | 210° |
| 2026-04-25 00:18 | 31.17635 | -87.10947 | 1424 ft | 170 kts | 205° |
| 2026-04-25 00:18 | 31.16557 | -87.11475 | 1863 ft | 168 kts | 195° |
| 2026-04-25 00:18 | 31.15420 | -87.11833 | 2252 ft | 170 kts | 191° |
| 2026-04-25 00:18 | 31.14247 | -87.11959 | 2638 ft | 173 kts | 177° |
| 2026-04-25 00:19 | 31.13055 | -87.11584 | 2912 ft | 182 kts | 155° |
| 2026-04-25 00:19 | 31.11924 | -87.10878 | 3272 ft | 185 kts | 150° |
| 2026-04-25 00:19 | 31.10782 | -87.10033 | 3350 ft | 203 kts | 144° |
| 2026-04-25 00:19 | 31.09670 | -87.08962 | 3465 ft | 213 kts | 139° |
| 2026-04-25 00:20 | 31.08577 | -87.07789 | 3578 ft | 203 kts | 138° |
| 2026-04-25 00:20 | 31.07618 | -87.06725 | 3592 ft | 182 kts | 137° |
| 2026-04-25 00:20 | 31.06705 | -87.05667 | 3332 ft | 184 kts | 135° |
| 2026-04-25 00:20 | 31.05841 | -87.04575 | 3409 ft | 183 kts | 132° |
| 2026-04-25 00:21 | 31.05015 | -87.03442 | 3459 ft | 183 kts | 129° |
| 2026-04-25 00:21 | 31.04322 | -87.02222 | 3500 ft | 184 kts | 109° |
| 2026-04-25 00:21 | 31.03627 | -87.01006 | 3494 ft | 183 kts | 147° |
| 2026-04-25 00:21 | 31.02401 | -87.00708 | 3500 ft | 183 kts | 192° |
| 2026-04-25 00:22 | 31.01244 | -87.01329 | 3503 ft | 184 kts | 209° |
| 2026-04-25 00:22 | 31.00100 | -87.02077 | 3499 ft | 187 kts | 209° |
| 2026-04-25 00:22 | 30.98969 | -87.02817 | 3497 ft | 188 kts | 209° |
| 2026-04-25 00:22 | 30.97806 | -87.03547 | 3489 ft | 190 kts | 199° |
| 2026-04-25 00:23 | 30.96489 | -87.03618 | 3505 ft | 190 kts | 177° |
| 2026-04-25 00:23 | 30.95164 | -87.03532 | 3502 ft | 191 kts | 177° |
| 2026-04-25 00:23 | 30.93813 | -87.03442 | 3500 ft | 192 kts | 177° |
| 2026-04-25 00:23 | 30.92471 | -87.03355 | 3499 ft | 192 kts | 177° |
| 2026-04-25 00:24 | 30.91140 | -87.03266 | 3494 ft | 192 kts | 177° |
| 2026-04-25 00:24 | 30.89789 | -87.03179 | 3499 ft | 192 kts | 177° |
| 2026-04-25 00:24 | 30.88455 | -87.03092 | 3499 ft | 192 kts | 177° |
| 2026-04-25 00:24 | 30.87094 | -87.03011 | 3500 ft | 193 kts | 177° |
| 2026-04-25 00:25 | 30.85754 | -87.02928 | 3500 ft | 192 kts | 177° |
| 2026-04-25 00:25 | 30.84421 | -87.02846 | 3503 ft | 193 kts | 177° |
| 2026-04-25 00:25 | 30.83131 | -87.02760 | 3488 ft | 172 kts | 177° |
| 2026-04-25 00:25 | 30.82011 | -87.02679 | 3483 ft | 149 kts | 177° |
| 2026-04-25 00:26 | 30.81086 | -87.02608 | 3476 ft | 129 kts | 177° |
| 2026-04-25 00:26 | 30.80189 | -87.02543 | 3518 ft | 132 kts | 177° |
| 2026-04-25 00:26 | 30.79287 | -87.02469 | 3490 ft | 123 kts | 177° |
| 2026-04-25 00:26 | 30.78403 | -87.02400 | 3526 ft | 139 kts | 177° |
| 2026-04-25 00:27 | 30.77351 | -87.02329 | 3516 ft | 152 kts | 177° |
| 2026-04-25 00:27 | 30.76315 | -87.02583 | 3074 ft | 157 kts | 212° |
| 2026-04-25 00:27 | 30.75447 | -87.03320 | 2866 ft | 149 kts | 220° |
| 2026-04-25 00:27 | 30.74669 | -87.04110 | 2552 ft | 150 kts | 220° |
| 2026-04-25 00:28 | 30.73891 | -87.04928 | 2292 ft | 147 kts | 220° |
| 2026-04-25 00:28 | 30.73144 | -87.05715 | 2028 ft | 145 kts | 213° |
| 2026-04-25 00:28 | 30.72253 | -87.06103 | 1763 ft | 136 kts | 180° |
| 2026-04-25 00:28 | 30.71510 | -87.05783 | 1554 ft | 95 kts | 146° |
| 2026-04-25 00:29 | 30.71096 | -87.05201 | 1046 ft | 98 kts | 114° |
| 2026-04-25 00:29 | 30.71019 | -87.04464 | 670 ft | 89 kts | 90° |
| 2026-04-25 00:29 | 30.71202 | -87.03793 | 349 ft | 94 kts | 62° |
| 2026-04-25 00:29 | 30.71630 | -87.03198 | 190 ft | 98 kts | 52° |
| 2026-04-25 00:30 | 30.71908 | -87.02842 | 176 ft | 18 kts | 58° |
| 2026-04-25 00:30 | 30.71951 | -87.02762 | 177 ft | 7 kts | 54° |
| 2026-04-25 00:30 | 30.71999 | -87.02679 | 178 ft | 16 kts | 79° |
| 2026-04-25 00:30 | 30.71957 | -87.02604 | 177 ft | 9 kts | 182° |
| 2026-04-25 00:31 | 30.71867 | -87.02608 | 175 ft | 11 kts | 181° |
| 2026-04-25 00:31 | 30.71810 | -87.02606 | 175 ft | 8 kts | 173° |
| 2026-04-25 00:31 | 30.71764 | -87.02647 | 175 ft | 7 kts | 278° |
| 2026-04-25 00:31 | 30.71753 | -87.02644 | 175 ft | 0 kts | 86° |
| 2026-04-25 00:32 | 30.71753 | -87.02645 | 175 ft | 0 kts | 86° |